• Join FlightAware (Why Join?)
  • Login
  • US Flag 
09:41PM EDT


 

Airport Tracker/Info


-or-


 

Live Flight TrackerFlight Track Log ✈ SVA1495 ✈ 19-Jun-2013 ✈ OEPA / AQI - OEJN / JED

Flight Track Log - Related Links

Times and Time Zones

All times are in EDT time to prevent confusion due to time zone crossing. See the SVA1495 flight status page for this flight to view local times or setup timezone preferences in your user account.

Time Position Orientation Groundspeed Altitude Reporting Facility
EDT Latitude Longitude Course Direction KTS MPH feet Rate Location/Type
03:36PM 27.2500 44.9095 225° Southwest  Level Estimated
03:37PM 27.1773 44.8293 224° Southwest  Level Estimated
03:38PM 27.1046 44.7492 224° Southwest  Level Estimated
03:39PM 27.0317 44.6693 224° Southwest  Level Estimated
03:40PM 26.9589 44.5894 224° Southwest  Level Estimated
03:41PM 26.8860 44.5096 224° Southwest  Level Estimated
03:42PM 26.8131 44.4299 224° Southwest  Level Estimated
03:43PM 26.7401 44.3504 224° Southwest  Level Estimated
03:44PM 26.6670 44.2709 224° Southwest  Level Estimated
03:45PM 26.5940 44.1916 224° Southwest  Level Estimated
03:46PM 26.5208 44.1123 224° Southwest  Level Estimated
03:47PM 26.4477 44.0331 224° Southwest  Level Estimated
03:48PM 26.3745 43.9541 224° Southwest  Level Estimated
03:49PM 26.3012 43.8751 224° Southwest  Level Estimated
03:50PM 26.2279 43.7963 224° Southwest  Level Estimated
03:51PM 26.1546 43.7175 224° Southwest  Level Estimated
03:52PM 26.0812 43.6388 224° Southwest  Level Estimated
03:53PM 26.0078 43.5603 224° Southwest  Level Estimated
03:54PM 25.9343 43.4818 224° Southwest  Level Estimated
03:55PM 25.8608 43.4035 224° Southwest  Level Estimated
03:56PM 25.7873 43.3252 224° Southwest  Level Estimated
03:57PM 25.7137 43.2470 224° Southwest  Level Estimated
03:58PM 25.6401 43.1689 224° Southwest  Level Estimated
03:59PM 25.5664 43.0910 224° Southwest  Level Estimated
04:00PM 25.4927 43.0131 224° Southwest  Level Estimated
04:01PM 25.4189 42.9353 224° Southwest  Level Estimated
04:02PM 25.3451 42.8576 224° Southwest  Level Estimated
04:03PM 25.2713 42.7800 224° Southwest  Level Estimated
04:04PM 25.1974 42.7025 224° Southwest  Level Estimated
04:05PM 25.1235 42.6251 223° Southwest  Level Estimated
04:06PM 25.0495 42.5478 223° Southwest  Level Estimated
04:07PM 24.9755 42.4706 223° Southwest  Level Estimated
04:08PM 24.9015 42.3934 223° Southwest  Level Estimated
04:09PM 24.8274 42.3164 223° Southwest  Level Estimated
04:10PM 24.7533 42.2395 223° Southwest  Level Estimated
04:11PM 24.6791 42.1626 223° Southwest  Level Estimated
04:12PM 24.6049 42.0858 223° Southwest  Level Estimated
04:13PM 24.5307 42.0092 223° Southwest  Level Estimated
04:14PM 24.4564 41.9326 223° Southwest  Level Estimated
04:15PM 24.3821 41.8561 223° Southwest  Level Estimated
04:16PM 24.3078 41.7797 223° Southwest  Level Estimated
04:17PM 24.2334 41.7034 223° Southwest  Level Estimated
04:18PM 24.1589 41.6272 223° Southwest  Level Estimated
04:19PM 24.0845 41.5510 223° Southwest  Level Estimated
04:20PM 24.0100 41.4750 223° Southwest  Level Estimated
04:21PM 23.9354 41.3991 223° Southwest  Level Estimated
04:22PM 23.8609 41.3232 223° Southwest  Level Estimated
04:23PM 23.7862 41.2474 223° Southwest  Level Estimated
04:24PM 23.7116 41.1717 223° Southwest  Level Estimated
04:25PM 23.6369 41.0961 223° Southwest  Level Estimated
04:26PM 23.5622 41.0206 223° Southwest  Level Estimated
04:27PM 23.4874 40.9452 223° Southwest  Level Estimated
04:28PM 23.4126 40.8698 223° Southwest  Level Estimated
04:29PM 23.3378 40.7946 223° Southwest  Level Estimated
04:30PM 23.2629 40.7194 223° Southwest  Level Estimated
04:31PM 23.1880 40.6443 223° Southwest  Level Estimated
04:32PM 23.1131 40.5693 223° Southwest  Level Estimated
04:33PM 23.0381 40.4943 223° Southwest  Level Estimated
04:34PM 22.9631 40.4195 223° Southwest  Level Estimated
04:35PM 22.8881 40.3447 223° Southwest  Level Estimated
04:36PM 22.8130 40.2701 223° Southwest  Level Estimated
04:37PM 22.7379 40.1955 222° Southwest  Level Estimated
04:38PM 22.6627 40.1210 222° Southwest  Level Estimated
04:39PM 22.5875 40.0465 222° Southwest  Level Estimated
04:40PM 22.5123 39.9722 222° Southwest  Level Estimated
04:41PM 22.4371 39.8979 222° Southwest  Level Estimated
04:42PM 22.3618 39.8237 222° Southwest  Level Estimated
04:43PM 22.2865 39.7496 222° Southwest  Level Estimated
04:44PM 22.2111 39.6756 222° Southwest  Level Estimated
04:45PM 22.1357 39.6016 222° Southwest  Level Estimated
04:46PM 22.0603 39.5278 222° Southwest  Level Estimated
04:47PM 21.9848 39.4540 222° Southwest  Level Estimated
04:48PM 21.9094 39.3803 222° Southwest  Level Estimated
04:49PM 21.8338 39.3066 222° Southwest  Level Estimated
04:50PM 21.7583 39.2331 222° Southwest  Level Estimated
04:51PM 21.6827 39.1596 222° Southwest  Level Estimated
04:52PM 21.6796 39.1565 222° Southwest  Level Estimated
04:53PM 21.6796 39.1565 317° Northwest  Level Estimated
04:54PM 21.6796 39.1565 317° Northwest  Level Estimated
04:55PM 21.6796 39.1565 317° Northwest  Level Estimated
04:56PM 21.6796 39.1565 317° Northwest  Level Estimated
04:57PM 21.6796 39.1565 317° Northwest  Level Estimated
04:58PM 21.6796 39.1565 317° Northwest  Level Estimated
04:59PM 21.6796 39.1565 317° Northwest  Level Estimated
05:00PM 21.6796 39.1565 317° Northwest  Level Estimated
05:01PM 21.6796 39.1565 317° Northwest  Level Estimated
05:02PM 21.6796 39.1565 317° Northwest  Level Estimated
05:03PM 21.6796 39.1565 317° Northwest  Level Estimated
05:04PM 21.6796 39.1565 317° Northwest  Level Estimated
05:05PM 21.6796 39.1565 317° Northwest  Level Estimated
05:06PM 21.6796 39.1565 317° Northwest  Level Estimated
05:07PM 21.6796 39.1565 317° Northwest  Level Estimated